Nye, Wisconsin
Current Conditions -  °F | °C
As of 8:35 PM on Wednesday 26 Nov 2014 (Local Time) from KOEO Reporting Station
Overcast Overcast  
Wind Chill:   Ceiling: 4800
Heat Index: 20°   Visibility: 10mi
Dew Point: 11°   Wind: 15mph
Humidity: 68%   Direction: 330°NNW
Pressure: 30.34"   Gusts: 18mph
Location:  45.3193°N, 92.6951°W
Report Text: KOEO 270235Z AUTO 33013G16KT 10SM BKN048 BKN060 OVC110 M07/M12 A3034 RMK AO2 T10691119
Loading
Personal Weather Stations






























Interactive Weather Map New forecast layout! Learn more

10-Day Weather Forecast

Advertisements
Track Severe Weather on mobile